Edgewood Park, New York
Current Conditions -  °F | °C
As of 9:58 PM on Friday 28 Nov 2014 (Local Time) from KGTB Reporting Station
Overcast Overcast  
Wind Chill: 20°   Ceiling: 4700
Heat Index: 20°   Visibility: 10mi
Dew Point: 11°   Wind: 1mph
Humidity: 70%   Direction: 270°W
Pressure: 30.18"   Gusts: NA
Location:  44.3057°N, 75.9374°W
Report Text: KGTB 290258Z AUTO 27001KT 10SM OVC047 M07/M11 A3018 RMK AO2 SLP232 T10681114 52002
Loading
Personal Weather Stations






























Interactive Weather Map New forecast layout! Learn more

10-Day Weather Forecast

Advertisements
Track Severe Weather on mobile